createdAt,value
2023-04-27T00:01:32.876Z,75.52
2023-04-27T00:03:45.974Z,76.00
2023-04-27T00:05:58.785Z,76.23
2023-04-27T00:08:11.504Z,76.58
2023-04-27T00:10:24.290Z,76.89
2023-04-27T00:12:36.923Z,76.99
2023-04-27T00:14:49.611Z,77.13
2023-04-27T00:17:02.290Z,77.16
2023-04-27T00:19:16.089Z,77.44
2023-04-27T00:21:28.774Z,77.55
2023-04-27T00:23:41.503Z,77.54
2023-04-27T00:25:54.068Z,77.34
2023-04-27T00:28:06.729Z,77.80
2023-04-27T00:30:19.372Z,78.09
2023-04-27T00:32:31.997Z,78.22
2023-04-27T00:34:44.833Z,78.07
2023-04-27T00:36:57.796Z,78.05
2023-04-27T00:39:10.384Z,77.90
2023-04-27T00:41:23.080Z,77.92
2023-04-27T00:43:43.722Z,77.78
2023-04-27T00:45:56.755Z,77.90
2023-04-27T00:48:11.346Z,78.13
2023-04-27T00:50:29.883Z,78.05
2023-04-27T00:52:43.651Z,78.37
2023-04-27T00:54:57.820Z,78.60
2023-04-27T00:57:10.667Z,78.56
2023-04-27T00:59:23.325Z,78.62
2023-04-27T01:01:36.040Z,78.72
2023-04-27T01:03:49.132Z,79.09
2023-04-27T01:06:01.994Z,78.88
2023-04-27T01:08:14.770Z,78.84
2023-04-27T01:10:28.444Z,79.07
2023-04-27T01:12:41.231Z,79.24
2023-04-27T01:14:53.727Z,79.21
2023-04-27T01:17:06.870Z,79.44
2023-04-27T01:19:19.946Z,79.62
2023-04-27T01:21:32.480Z,79.50
2023-04-27T01:23:45.052Z,79.93
2023-04-27T01:25:57.590Z,79.93
2023-04-27T01:28:10.289Z,80.15
2023-04-27T01:30:22.965Z,80.12
2023-04-27T01:32:38.085Z,80.28
2023-04-27T01:34:50.657Z,80.10
2023-04-27T01:37:03.227Z,80.38
2023-04-27T01:39:16.412Z,80.51
2023-04-27T01:41:28.938Z,80.37
2023-04-27T01:43:43.632Z,80.55
2023-04-27T01:45:56.319Z,80.45
2023-04-27T01:48:08.933Z,80.82
2023-04-27T01:50:21.533Z,80.84
2023-04-27T01:52:34.215Z,80.82
2023-04-27T01:54:46.810Z,80.65
2023-04-27T01:56:59.345Z,80.94
2023-04-27T01:59:12.007Z,80.86
2023-04-27T02:01:24.823Z,81.09
2023-04-27T02:03:37.490Z,80.94
2023-04-27T02:05:50.407Z,81.08
2023-04-27T02:08:03.017Z,81.02
2023-04-27T02:10:16.126Z,81.07
2023-04-27T02:12:28.711Z,81.00
2023-04-27T02:14:41.370Z,81.13
2023-04-27T02:16:54.006Z,81.48
2023-04-27T02:19:06.994Z,81.68
2023-04-27T02:21:19.533Z,81.83
2023-04-27T02:23:32.091Z,81.73
2023-04-27T02:25:46.761Z,81.78
2023-04-27T02:27:59.385Z,81.98
2023-04-27T02:30:12.799Z,81.96
2023-04-27T02:32:25.989Z,82.18
2023-04-27T02:34:38.552Z,82.01
2023-04-27T02:36:51.208Z,82.08
2023-04-27T02:39:03.859Z,82.42
2023-04-27T02:41:16.429Z,82.35
2023-04-27T02:43:28.969Z,82.54
2023-04-27T02:45:41.703Z,82.53
2023-04-27T02:47:54.354Z,82.57
2023-04-27T02:50:07.487Z,82.55
2023-04-27T02:52:20.046Z,82.64
2023-04-27T02:54:32.579Z,82.74
2023-04-27T02:56:45.128Z,82.90
2023-04-27T02:58:57.663Z,83.00
2023-04-27T03:01:10.265Z,83.01
2023-04-27T03:03:24.024Z,82.99
2023-04-27T03:05:37.301Z,83.03
2023-04-27T03:07:50.424Z,82.93
2023-04-27T03:10:02.993Z,82.80
2023-04-27T03:12:15.754Z,82.81
2023-04-27T03:14:28.388Z,82.79
2023-04-27T03:16:41.073Z,82.71
2023-04-27T03:18:53.699Z,82.47
2023-04-27T03:21:07.739Z,82.61
2023-04-27T03:23:20.583Z,82.60
2023-04-27T03:25:33.145Z,82.77
2023-04-27T03:27:45.771Z,82.82
2023-04-27T03:29:58.337Z,82.87
2023-04-27T03:32:10.925Z,82.90
2023-04-27T03:34:23.558Z,83.00
2023-04-27T03:36:36.284Z,83.22
2023-04-27T03:38:48.902Z,83.47
2023-04-27T03:41:02.041Z,83.69
2023-04-27T03:43:14.654Z,84.01
2023-04-27T03:45:27.295Z,84.21
2023-04-27T03:47:39.924Z,84.60
2023-04-27T03:49:52.561Z,84.73
2023-04-27T03:52:05.516Z,84.87
2023-04-27T03:54:18.087Z,85.14
2023-04-27T03:56:30.628Z,85.13
2023-04-27T03:58:43.187Z,85.17
2023-04-27T04:00:57.293Z,85.27
2023-04-27T04:03:10.310Z,85.31
2023-04-27T04:05:23.197Z,85.35
2023-04-27T04:07:36.234Z,85.48
2023-04-27T04:09:48.732Z,85.77
2023-04-27T04:12:01.993Z,85.81
2023-04-27T04:14:14.578Z,86.05
2023-04-27T04:16:27.155Z,86.34
2023-04-27T04:18:39.719Z,86.84
2023-04-27T04:20:52.280Z,87.18
2023-04-27T04:23:04.854Z,87.53
2023-04-27T04:25:17.964Z,87.87
2023-04-27T04:27:31.626Z,87.95
2023-04-27T04:29:44.204Z,88.08
2023-04-27T04:31:56.855Z,88.15
2023-04-27T04:34:10.109Z,88.08
2023-04-27T04:36:22.750Z,87.96
2023-04-27T04:38:35.422Z,88.13
2023-04-27T04:40:48.047Z,88.19
2023-04-27T04:43:00.696Z,88.16
2023-04-27T04:45:13.990Z,88.20
2023-04-27T04:47:27.138Z,88.28
2023-04-27T04:49:39.822Z,88.07
2023-04-27T04:51:52.405Z,88.04
2023-04-27T04:54:04.950Z,88.06
2023-04-27T04:56:17.491Z,88.34
2023-04-27T04:58:30.031Z,88.78
2023-04-27T05:00:43.083Z,88.57
2023-04-27T05:02:55.968Z,88.56
2023-04-27T05:05:09.277Z,88.01
2023-04-27T05:07:24.686Z,87.99
2023-04-27T05:09:37.546Z,87.87
2023-04-27T05:11:50.055Z,87.64
2023-04-27T05:14:02.561Z,87.56
2023-04-27T05:16:15.375Z,87.58
2023-04-27T05:18:28.004Z,87.10
2023-04-27T05:20:40.811Z,86.89
2023-04-27T05:22:53.366Z,87.00
2023-04-27T05:25:06.618Z,86.60
2023-04-27T05:27:19.246Z,86.40
2023-04-27T05:29:31.844Z,86.19
2023-04-27T05:31:44.443Z,86.04
2023-04-27T05:33:57.034Z,85.64
2023-04-27T05:36:09.637Z,85.29
2023-04-27T05:38:22.188Z,85.06
2023-04-27T05:40:34.644Z,84.86
2023-04-27T05:42:47.582Z,84.48
2023-04-27T05:45:00.698Z,84.24
2023-04-27T05:47:13.348Z,84.08
2023-04-27T05:49:26.701Z,83.82
2023-04-27T05:51:39.241Z,83.87
2023-04-27T05:53:55.140Z,83.70
2023-04-27T05:56:08.108Z,83.87
2023-04-27T05:58:22.176Z,83.49
2023-04-27T06:00:34.712Z,83.11
2023-04-27T06:02:47.307Z,82.23
2023-04-27T06:05:00.101Z,81.26
2023-04-27T06:07:14.676Z,80.38
2023-04-27T06:09:27.750Z,79.14
2023-04-27T06:11:40.511Z,78.76
2023-04-27T06:13:53.158Z,77.84
2023-04-27T06:16:06.004Z,77.54
2023-04-27T06:18:18.662Z,77.01
2023-04-27T06:20:31.557Z,76.00
2023-04-27T06:22:44.142Z,75.47
2023-04-27T06:24:56.690Z,74.73
2023-04-27T06:27:09.343Z,74.23
2023-04-27T06:29:21.893Z,73.86
2023-04-27T06:31:34.907Z,73.26
2023-04-27T06:33:47.517Z,72.66
2023-04-27T06:36:01.335Z,71.54
2023-04-27T06:38:13.957Z,71.23
2023-04-27T06:40:26.826Z,69.96
2023-04-27T06:42:39.388Z,69.60
2023-04-27T06:44:55.011Z,69.31
2023-04-27T06:47:07.593Z,69.04
2023-04-27T06:49:20.383Z,67.90
2023-04-27T06:51:33.014Z,67.03
2023-04-27T06:53:45.564Z,66.87
2023-04-27T06:55:58.168Z,66.93
2023-04-27T06:58:10.876Z,66.00
2023-04-27T07:00:23.417Z,64.61
2023-04-27T07:02:36.246Z,63.95
2023-04-27T07:04:49.078Z,63.15
2023-04-27T07:07:02.097Z,62.97
2023-04-27T07:09:26.563Z,63.25
2023-04-27T07:11:39.993Z,63.47
2023-04-27T07:13:52.653Z,63.04
2023-04-27T07:16:05.773Z,62.26
2023-04-27T07:18:18.371Z,61.34
2023-04-27T07:20:31.065Z,61.39
2023-04-27T07:22:43.616Z,60.39
2023-04-27T07:24:56.120Z,60.28
2023-04-27T07:27:09.109Z,60.63
2023-04-27T07:29:26.841Z,60.49
2023-04-27T07:31:40.103Z,59.83
2023-04-27T07:33:53.547Z,59.47
2023-04-27T07:36:07.300Z,59.45
2023-04-27T07:38:20.057Z,58.97
2023-04-27T07:40:32.791Z,57.87
2023-04-27T07:42:48.321Z,57.33
2023-04-27T07:45:01.159Z,57.44
2023-04-27T07:47:13.947Z,56.64
2023-04-27T07:49:27.944Z,56.60
2023-04-27T07:51:40.578Z,56.79
2023-04-27T07:53:53.115Z,56.57
2023-04-27T07:56:06.079Z,56.17
2023-04-27T07:58:19.821Z,55.59
2023-04-27T08:00:32.425Z,54.83
2023-04-27T08:02:45.477Z,54.89
2023-04-27T08:04:58.849Z,54.60
2023-04-27T08:07:12.003Z,54.43
2023-04-27T08:09:24.906Z,53.76
2023-04-27T08:11:37.452Z,52.97
2023-04-27T08:13:50.003Z,52.91
2023-04-27T08:16:02.625Z,52.37
2023-04-27T08:18:15.182Z,52.32
2023-04-27T08:20:27.767Z,51.47
2023-04-27T08:22:41.899Z,51.08
2023-04-27T08:24:54.392Z,51.45
2023-04-27T08:27:07.099Z,51.41
2023-04-27T08:29:27.829Z,51.08
2023-04-27T08:31:41.407Z,51.11
2023-04-27T08:33:54.479Z,50.76
2023-04-27T08:36:07.639Z,50.15
2023-04-27T08:38:20.170Z,48.64
2023-04-27T08:40:32.760Z,48.95
2023-04-27T08:42:55.072Z,47.59
2023-04-27T08:45:08.903Z,48.43
2023-04-27T08:47:28.398Z,48.18
2023-04-27T08:49:51.498Z,47.61
2023-04-27T08:52:10.810Z,46.57
2023-04-27T08:54:23.379Z,46.70
2023-04-27T08:56:36.521Z,45.74
2023-04-27T08:58:49.852Z,45.32
2023-04-27T09:01:07.309Z,44.79
2023-04-27T09:03:26.604Z,44.71
2023-04-27T09:05:56.453Z,44.48
2023-04-27T09:08:16.741Z,43.23
2023-04-27T09:10:29.796Z,42.47
2023-04-27T09:12:42.408Z,42.57
2023-04-27T09:14:59.515Z,42.68
2023-04-27T09:17:13.528Z,42.06
2023-04-27T09:19:30.454Z,42.06
2023-04-27T09:21:43.402Z,42.40
2023-04-27T09:23:56.644Z,42.52
2023-04-27T09:26:09.258Z,41.96
2023-04-27T09:28:22.388Z,41.18
2023-04-27T09:30:36.962Z,41.36
2023-04-27T09:33:01.691Z,41.43
2023-04-27T09:35:25.309Z,41.55
2023-04-27T09:37:37.888Z,41.86
2023-04-27T09:39:50.584Z,40.78
2023-04-27T09:42:04.411Z,39.44
2023-04-27T09:44:17.325Z,38.43
2023-04-27T09:46:33.314Z,38.09
2023-04-27T09:48:46.044Z,38.31
2023-04-27T09:50:58.649Z,38.02
2023-04-27T09:53:14.121Z,38.46
2023-04-27T09:55:34.130Z,38.38
2023-04-27T09:57:55.672Z,38.88
2023-04-27T10:00:16.218Z,38.81
2023-04-27T10:02:42.786Z,39.07
2023-04-27T10:05:14.164Z,39.18
2023-04-27T10:07:27.910Z,38.87
2023-04-27T10:09:49.234Z,39.11
2023-04-27T10:12:23.486Z,38.95
2023-04-27T10:14:36.117Z,38.71
2023-04-27T10:16:57.162Z,39.26
2023-04-27T10:19:09.853Z,40.00
2023-04-27T10:21:23.767Z,39.13
2023-04-27T10:23:46.616Z,39.29
2023-04-27T10:26:07.525Z,39.57
2023-04-27T10:28:22.726Z,39.58
2023-04-27T10:30:39.715Z,39.81
2023-04-27T10:32:53.466Z,39.64
2023-04-27T10:35:08.848Z,39.28
2023-04-27T10:37:25.336Z,39.19
2023-04-27T10:39:48.761Z,40.00
2023-04-27T10:42:03.033Z,40.75
2023-04-27T10:44:24.777Z,39.87
2023-04-27T10:46:49.764Z,40.99
2023-04-27T10:49:05.422Z,41.68
2023-04-27T10:51:18.111Z,41.45
2023-04-27T10:53:37.014Z,40.45
2023-04-27T10:55:56.367Z,40.25
2023-04-27T10:58:08.938Z,40.73
2023-04-27T11:00:24.235Z,42.02
2023-04-27T11:02:37.208Z,42.55
2023-04-27T11:04:49.972Z,43.50
2023-04-27T11:07:04.619Z,43.15
2023-04-27T11:09:27.517Z,42.77
2023-04-27T11:11:46.387Z,42.32
2023-04-27T11:13:58.994Z,42.42
2023-04-27T11:16:11.602Z,42.97
2023-04-27T11:18:30.644Z,43.15
2023-04-27T11:20:49.624Z,43.24
2023-04-27T11:23:02.266Z,43.32
2023-04-27T11:25:15.109Z,42.98
2023-04-27T11:27:37.591Z,42.14
2023-04-27T11:29:50.124Z,42.37
2023-04-27T11:32:04.443Z,42.39
2023-04-27T11:34:22.813Z,41.57
2023-04-27T11:36:36.079Z,41.18
2023-04-27T11:38:49.327Z,39.85
2023-04-27T11:41:05.466Z,39.84
2023-04-27T11:43:18.080Z,40.57
2023-04-27T11:45:30.707Z,40.85
2023-04-27T11:47:46.655Z,40.97
2023-04-27T11:50:02.506Z,41.33
2023-04-27T11:52:16.169Z,41.51
2023-04-27T11:54:29.295Z,40.80
2023-04-27T11:56:43.006Z,39.68
2023-04-27T11:58:55.606Z,40.07
2023-04-27T12:01:09.157Z,40.30
2023-04-27T12:03:21.801Z,39.34
2023-04-27T12:05:35.377Z,38.82
2023-04-27T12:07:47.965Z,38.94
2023-04-27T12:10:01.230Z,38.66
2023-04-27T12:12:14.557Z,38.30
2023-04-27T12:14:27.100Z,38.59
2023-04-27T12:16:39.786Z,38.17
2023-04-27T12:18:52.451Z,38.54
2023-04-27T12:23:20.992Z,38.36
2023-04-27T12:25:33.566Z,37.96
2023-04-27T12:27:47.966Z,36.49
2023-04-27T12:30:01.214Z,36.72
2023-04-27T12:32:13.894Z,35.85
2023-04-27T12:34:27.253Z,35.91
2023-04-27T12:36:39.830Z,36.70
2023-04-27T12:38:52.582Z,35.37
2023-04-27T12:41:05.181Z,35.19
2023-04-27T12:43:17.787Z,33.46
2023-04-27T12:45:30.328Z,32.67
2023-04-27T12:48:01.159Z,32.65
2023-04-27T12:50:15.776Z,32.48
2023-04-27T12:52:28.812Z,33.03
2023-04-27T12:54:41.345Z,33.16
2023-04-27T12:56:53.962Z,32.53
2023-04-27T12:59:06.753Z,32.51
2023-04-27T13:01:19.674Z,33.36
2023-04-27T13:03:32.451Z,33.57
2023-04-27T13:05:45.606Z,32.90
2023-04-27T13:07:58.097Z,32.99
2023-04-27T13:10:11.974Z,33.09
2023-04-27T13:12:24.728Z,33.58
2023-04-27T13:14:37.335Z,34.99
2023-04-27T13:16:49.999Z,36.00
2023-04-27T13:19:02.529Z,36.79
2023-04-27T13:21:15.336Z,37.99
2023-04-27T13:23:27.936Z,38.66
2023-04-27T13:25:41.083Z,39.46
2023-04-27T13:27:53.964Z,40.16
2023-04-27T13:30:07.265Z,40.91
2023-04-27T13:32:19.914Z,41.86
2023-04-27T13:34:32.585Z,42.67
2023-04-27T13:36:45.110Z,43.36
2023-04-27T13:38:57.632Z,43.69
2023-04-27T13:41:10.279Z,43.98
2023-04-27T13:43:22.907Z,44.56
2023-04-27T13:45:35.457Z,44.66
2023-04-27T13:47:48.032Z,44.82
2023-04-27T13:50:05.837Z,44.86
2023-04-27T13:52:18.550Z,44.31
2023-04-27T13:54:31.112Z,43.85
2023-04-27T13:56:43.674Z,43.37
2023-04-27T13:58:56.169Z,42.51
2023-04-27T14:01:08.869Z,41.75
2023-04-27T14:03:22.613Z,40.11
2023-04-27T14:05:35.715Z,38.72
2023-04-27T14:07:48.309Z,38.53
2023-04-27T14:10:01.798Z,37.57
2023-04-27T14:12:14.545Z,37.15
2023-04-27T14:14:27.218Z,37.46
2023-04-27T14:16:39.788Z,37.57
2023-04-27T14:18:52.445Z,37.02
2023-04-27T14:21:05.045Z,36.66
2023-04-27T14:23:17.612Z,36.54
2023-04-27T14:25:32.818Z,36.68
2023-04-27T14:27:45.555Z,37.25
2023-04-27T14:29:58.174Z,37.08
2023-04-27T14:32:10.764Z,36.72
2023-04-27T14:34:23.409Z,36.82
2023-04-27T14:36:36.138Z,37.24
2023-04-27T14:38:48.658Z,37.65
2023-04-27T14:41:02.076Z,37.54
2023-04-27T14:43:14.712Z,38.20
2023-04-27T14:45:33.595Z,37.37
2023-04-27T14:47:52.719Z,37.69
2023-04-27T14:50:06.083Z,36.92
2023-04-27T14:52:18.708Z,36.84
2023-04-27T14:54:31.427Z,36.54
2023-04-27T14:56:44.891Z,37.02
2023-04-27T14:58:57.441Z,37.31
2023-04-27T15:01:10.065Z,38.23
2023-04-27T15:03:22.829Z,38.38
2023-04-27T15:05:35.466Z,38.61
2023-04-27T15:07:48.053Z,37.87
2023-04-27T15:10:00.750Z,37.26
2023-04-27T15:12:13.491Z,37.91
2023-04-27T15:14:26.154Z,37.53
2023-04-27T15:16:38.842Z,37.13
2023-04-27T15:18:51.545Z,37.87
2023-04-27T15:21:04.383Z,38.75
2023-04-27T15:23:18.189Z,38.93
2023-04-27T15:25:30.737Z,38.94
2023-04-27T15:27:43.284Z,39.12
2023-04-27T15:29:57.706Z,39.24
2023-04-27T15:32:10.334Z,39.73
2023-04-27T15:34:22.837Z,39.82
2023-04-27T15:36:35.329Z,39.66
2023-04-27T15:38:47.884Z,39.50
2023-04-27T15:41:00.539Z,39.25
2023-04-27T15:43:13.184Z,39.71
2023-04-27T15:45:28.426Z,39.84
2023-04-27T15:47:41.071Z,39.69
2023-04-27T15:49:57.597Z,39.68
2023-04-27T15:52:10.965Z,39.44
2023-04-27T15:54:23.570Z,39.83
2023-04-27T15:56:36.287Z,39.75
2023-04-27T15:58:48.815Z,39.57
2023-04-27T16:01:01.538Z,39.64
2023-04-27T16:03:14.447Z,39.44
2023-04-27T16:05:27.214Z,39.41
2023-04-27T16:07:41.929Z,39.68
2023-04-27T16:09:54.503Z,39.28
2023-04-27T16:12:07.112Z,38.83
2023-04-27T16:14:19.717Z,39.35
2023-04-27T16:16:32.334Z,39.25
2023-04-27T16:18:44.991Z,39.95
2023-04-27T16:20:58.643Z,40.34
2023-04-27T16:23:11.169Z,40.73
2023-04-27T16:25:23.735Z,40.77
2023-04-27T16:27:37.837Z,40.74
2023-04-27T16:29:50.609Z,41.43
2023-04-27T16:32:03.579Z,41.12
2023-04-27T16:34:16.204Z,41.59
2023-04-27T16:36:28.751Z,41.57
2023-04-27T16:38:41.489Z,41.50
2023-04-27T16:40:55.993Z,41.35
2023-04-27T16:43:08.690Z,41.67
2023-04-27T16:45:21.501Z,42.02
2023-04-27T16:47:34.138Z,41.57
2023-04-27T16:49:46.768Z,40.70
2023-04-27T16:51:59.389Z,40.40
2023-04-27T16:54:12.740Z,40.32
2023-04-27T16:56:27.475Z,40.63
2023-04-27T16:58:40.921Z,40.82
2023-04-27T17:00:53.670Z,40.95
2023-04-27T17:03:06.636Z,41.26
2023-04-27T17:05:19.983Z,41.31
2023-04-27T17:07:33.026Z,41.44
2023-04-27T17:09:45.674Z,41.36
2023-04-27T17:11:58.259Z,41.47
2023-04-27T17:14:10.806Z,41.41
2023-04-27T17:16:23.646Z,41.13
2023-04-27T17:18:36.287Z,41.29
2023-04-27T17:20:48.956Z,41.39
2023-04-27T17:23:01.793Z,41.37
2023-04-27T17:25:14.429Z,41.61
2023-04-27T17:27:26.975Z,42.01
2023-04-27T17:29:39.515Z,41.71
2023-04-27T17:31:52.118Z,42.05
2023-04-27T17:34:04.723Z,42.52
2023-04-27T17:36:17.367Z,42.87
2023-04-27T17:38:29.872Z,43.04
2023-04-27T17:40:44.517Z,43.24
2023-04-27T17:42:57.853Z,43.39
2023-04-27T17:45:10.699Z,43.72
2023-04-27T17:47:25.264Z,44.06
2023-04-27T17:49:39.326Z,44.58
2023-04-27T17:51:51.888Z,44.67
2023-04-27T17:54:05.050Z,44.73
2023-04-27T17:56:17.606Z,44.96
2023-04-27T17:58:30.285Z,45.00
2023-04-27T18:00:43.297Z,45.37
2023-04-27T18:02:56.052Z,45.05
2023-04-27T18:05:08.872Z,44.96
2023-04-27T18:07:21.538Z,45.42
2023-04-27T18:09:34.135Z,46.07
2023-04-27T18:11:46.742Z,46.57
2023-04-27T18:13:59.269Z,46.75
2023-04-27T18:16:11.864Z,47.53
2023-04-27T18:18:25.457Z,48.00
2023-04-27T18:20:38.171Z,48.73
2023-04-27T18:22:50.819Z,49.46
2023-04-27T18:25:03.847Z,50.06
2023-04-27T18:27:16.745Z,50.15
2023-04-27T18:29:29.459Z,50.65
2023-04-27T18:31:42.132Z,50.24
2023-04-27T18:33:54.869Z,50.79
2023-04-27T18:36:08.313Z,51.51
2023-04-27T18:38:20.883Z,52.37
2023-04-27T18:40:36.013Z,52.51
2023-04-27T18:42:49.441Z,52.87
2023-04-27T18:45:02.020Z,53.01
2023-04-27T18:47:14.838Z,53.49
2023-04-27T18:49:27.373Z,53.21
2023-04-27T18:51:39.900Z,53.54
2023-04-27T18:53:53.358Z,54.00
2023-04-27T18:56:07.007Z,54.32
2023-04-27T18:58:19.775Z,54.77
2023-04-27T19:00:32.842Z,55.40
2023-04-27T19:02:45.456Z,55.34
2023-04-27T19:05:10.906Z,55.62
2023-04-27T19:07:25.619Z,55.99
2023-04-27T19:09:39.182Z,56.76
2023-04-27T19:12:00.026Z,57.31
2023-04-27T19:14:15.708Z,57.71
2023-04-27T19:16:28.575Z,57.83
2023-04-27T19:18:41.435Z,57.81
2023-04-27T19:20:54.331Z,57.80
2023-04-27T19:23:09.228Z,57.70
2023-04-27T19:25:23.039Z,57.66
2023-04-27T19:27:35.961Z,58.29
2023-04-27T19:29:51.265Z,58.42
2023-04-27T19:32:04.011Z,58.65
2023-04-27T19:34:16.596Z,59.17
2023-04-27T19:36:29.532Z,59.54
2023-04-27T19:38:42.039Z,59.88
2023-04-27T19:40:54.557Z,60.60
2023-04-27T19:43:07.149Z,60.88
2023-04-27T19:45:20.614Z,61.37
2023-04-27T19:47:33.227Z,61.80
2023-04-27T19:49:45.886Z,62.09
2023-04-27T19:51:59.723Z,62.24
2023-04-27T19:54:12.407Z,62.20
2023-04-27T19:56:25.082Z,62.22
2023-04-27T19:58:37.660Z,62.49
2023-04-27T20:00:50.237Z,62.68
2023-04-27T20:03:03.553Z,62.80
2023-04-27T20:05:16.419Z,63.21
2023-04-27T20:07:29.378Z,63.44
2023-04-27T20:09:41.921Z,63.50
2023-04-27T20:11:55.026Z,63.89
2023-04-27T20:14:07.550Z,64.25
2023-04-27T20:16:21.431Z,64.42
2023-04-27T20:18:34.029Z,64.68
2023-04-27T20:20:46.910Z,64.94
2023-04-27T20:22:59.452Z,65.19
2023-04-27T20:25:14.460Z,65.72
2023-04-27T20:27:27.219Z,66.01
2023-04-27T20:29:40.600Z,66.21
2023-04-27T20:31:53.154Z,66.44
2023-04-27T20:34:05.974Z,66.67
2023-04-27T20:36:18.791Z,66.93
2023-04-27T20:38:32.413Z,66.86
2023-04-27T20:40:45.753Z,67.32
2023-04-27T20:42:58.409Z,67.53
2023-04-27T20:45:11.463Z,67.94
2023-04-27T20:47:24.020Z,68.19
2023-04-27T20:49:36.581Z,68.44
2023-04-27T20:51:49.105Z,68.75
2023-04-27T20:54:01.749Z,68.94
2023-04-27T20:56:15.062Z,69.04
2023-04-27T20:58:27.747Z,69.25
2023-04-27T21:00:40.561Z,69.35
2023-04-27T21:02:53.540Z,69.52
2023-04-27T21:05:06.328Z,69.68
2023-04-27T21:07:18.943Z,70.08
2023-04-27T21:09:31.597Z,70.12
2023-04-27T21:11:44.173Z,70.23
2023-04-27T21:13:57.420Z,70.43
2023-04-27T21:16:10.058Z,70.76
2023-04-27T21:20:41.474Z,70.94
2023-04-27T21:22:54.060Z,71.05
2023-04-27T21:25:06.954Z,71.52
2023-04-27T21:27:19.541Z,72.03
2023-04-27T21:29:34.588Z,72.28
2023-04-27T21:31:47.139Z,72.17
2023-04-27T21:33:59.927Z,72.48
2023-04-27T21:36:12.501Z,72.72
2023-04-27T21:38:25.070Z,73.13
2023-04-27T21:40:37.647Z,73.27
2023-04-27T21:42:51.515Z,73.59
2023-04-27T21:45:04.489Z,73.57
2023-04-27T21:47:17.082Z,73.76
2023-04-27T21:49:29.642Z,74.08
2023-04-27T21:51:42.203Z,74.52
2023-04-27T21:53:55.085Z,75.01
2023-04-27T21:56:07.828Z,75.22
2023-04-27T21:58:20.962Z,75.77
2023-04-27T22:00:33.624Z,76.13
2023-04-27T22:02:46.370Z,76.40
2023-04-27T22:04:59.060Z,76.55
2023-04-27T22:07:12.079Z,76.93
2023-04-27T22:09:24.661Z,76.99
2023-04-27T22:11:37.212Z,77.11
2023-04-27T22:13:49.746Z,77.24
2023-04-27T22:16:02.334Z,77.28
2023-04-27T22:18:15.481Z,77.41
2023-04-27T22:20:28.199Z,77.50
2023-04-27T22:22:40.982Z,77.76
2023-04-27T22:24:53.567Z,78.02
2023-04-27T22:27:06.354Z,78.05
2023-04-27T22:29:18.964Z,78.33
2023-04-27T22:31:32.523Z,78.47
2023-04-27T22:33:45.367Z,79.06
2023-04-27T22:35:58.844Z,79.43
2023-04-27T22:38:11.530Z,79.53
2023-04-27T22:40:24.499Z,79.62
2023-04-27T22:42:37.260Z,79.82
2023-04-27T22:44:49.809Z,80.06
2023-04-27T22:47:02.692Z,80.17
2023-04-27T22:49:15.389Z,80.26
2023-04-27T22:51:27.910Z,80.53
2023-04-27T22:53:40.518Z,80.91
2023-04-27T22:55:53.039Z,81.21
2023-04-27T22:58:05.919Z,81.40
2023-04-27T23:00:18.567Z,81.65
2023-04-27T23:02:31.631Z,81.95
2023-04-27T23:04:44.437Z,81.95
2023-04-27T23:06:57.555Z,82.24
2023-04-27T23:09:10.123Z,82.27
2023-04-27T23:11:23.732Z,82.36
2023-04-27T23:13:37.954Z,82.64
2023-04-27T23:15:50.688Z,82.46
2023-04-27T23:18:03.321Z,82.64
2023-04-27T23:20:27.354Z,82.84
2023-04-27T23:22:43.771Z,82.83
2023-04-27T23:24:56.662Z,83.17
2023-04-27T23:27:09.206Z,83.41
2023-04-27T23:29:21.793Z,83.58
2023-04-27T23:31:34.347Z,83.79
2023-04-27T23:33:47.154Z,83.94
2023-04-27T23:36:00.342Z,84.00
2023-04-27T23:38:12.955Z,83.97
2023-04-27T23:40:25.755Z,84.07
2023-04-27T23:42:38.279Z,84.02
2023-04-27T23:44:50.934Z,84.34
2023-04-27T23:47:03.494Z,84.39
2023-04-27T23:49:16.095Z,84.61
2023-04-27T23:51:28.642Z,84.65
2023-04-27T23:53:41.171Z,84.84
2023-04-27T23:55:53.879Z,84.79
2023-04-27T23:58:06.403Z,85.21
